Thursday, June 21, 2018, 12:11 PM EDT
Back to Local

KJFK, Kennedy International Airport

Location: Rosedale, NY, United States Lat: 40.633
Local Time: 12:11 PM EDT (16:11 GMT) Lon: -73.767
Time Zone: US/Eastern Elev: 13 ft

Show me the last for .
Show Decoded

2018-06-21 11:51 METAR KJFK 211551Z 34007KT 10SM FEW028 FEW050 BKN120 BKN180 25/18 A2979 RMK AO2
                 SLP087 T02500183 =
2018-06-21 10:51 METAR KJFK 211451Z 35007KT 10SM FEW012 SCT050 BKN120 BKN180 23/19 A2979 RMK AO2
                 SLP087 60001 T02330194 51007 =
2018-06-21 09:51 METAR KJFK 211351Z 01009KT 10SM SCT009 BKN049 BKN075 BKN140 21/19 A2979 RMK AO2
                 SLP087 SCT V BKN T02060194 =
2018-06-21 08:51 METAR KJFK 211251Z 01007KT 10SM FEW009 FEW024 BKN047 BKN140 20/19 A2978 RMK AO2
                 RAB04E26 SLP085 P0001 T02000194 =
2018-06-21 07:51 METAR KJFK 211151Z 05003KT 9SM FEW008 SCT026 OVC041 19/19 A2977 RMK AO2 RAE08
                 SLP080 P0000 60024 70028 T01940194 10211 20189 51009 =
2018-06-21 06:51 METAR KJFK 211051Z 04007KT 6SM -RA BR FEW008 BKN028 OVC044 19/19 A2976 RMK AO2
                 SLP078 P0001 T01890189 =
2018-06-21 06:35 METAR KJFK 211035Z 02007KT 5SM -RA BR SCT008 OVC029 19/19 A2976 RMK AO2 P0001
                 T01890189 =
2018-06-21 05:51 METAR KJFK 210951Z 03007KT 10SM -RA SCT007 OVC043 19/19 A2976 RMK AO2
                 RAB21E40B51 SLP076 SCT007 V BKN P0001 T01890189 =
2018-06-21 05:45 METAR KJFK 210945Z 03008KT 10SM SCT007 OVC043 19/19 A2975 RMK AO2 RAB21E40
                 SCT007 V BKN P0001 =
2018-06-21 04:51 METAR KJFK 210851Z 03010KT 10SM BKN007 OVC037 19/19 A2974 RMK AO2 RAE45 SLP072
                 BKN007 V SCT P0004 60022 T01890189 56008 =
2018-06-21 03:51 METAR KJFK 210751Z 03011KT 6SM -RA BR BKN007 OVC042 19/19 A2975 RMK AO2 SLP074
                 BKN007 V SCT P0015 T01890189 =
2018-06-21 02:51 METAR KJFK 210651Z 02005KT 5SM -RA BR OVC009 21/21 A2976 RMK AO2 RAE01B26 SLP076
                 P0003 T02110211 =
2018-06-21 01:51 METAR KJFK 210551Z 00000KT 10SM -RA BKN008 OVC032 21/21 A2977 RMK AO2 SLP080
                 P0003 60004 T02110211 10222 20211 58006 =
2018-06-21 00:51 METAR KJFK 210451Z 15005KT 8SM -RA FEW015 OVC047 21/21 A2977 RMK AO2 RAE0359B17
                 SLP081 P0001 T02110211 402560194 =
2018-06-20 23:51 METAR KJFK 210351Z 18008KT 10SM -RA FEW025 OVC060 22/21 A2978 RMK AO2 RAB24
                 SLP086 P0000 T02170211 =
2018-06-20 22:51 METAR KJFK 210251Z 16006KT 10SM OVC070 22/21 A2979 RMK AO2 RAE0156 SLP086 P0000
                 60000 T02170206 57000 =
2018-06-20 21:51 METAR KJFK 210151Z 18010KT 10SM -RA FEW045 BKN070 OVC110 22/21 A2979 RMK AO2
                 RAB10 SLP087 P0000 T02170206 =
2018-06-20 20:51 METAR KJFK 210051Z 19015KT 10SM SCT065 BKN090 OVC110 22/20 A2978 RMK AO2 SLP086
                 T02170200 =
2018-06-20 19:51 METAR KJFK 202351Z 18012KT 10SM FEW045 SCT060 BKN110 BKN250 22/20 A2979 RMK AO2
                 SLP086 T02220200 10256 20222 56009 =
2018-06-20 18:51 METAR KJFK 202251Z 17012KT 10SM FEW045 FEW095 SCT120 SCT200 BKN250 23/18 A2979
                 RMK AO2 SLP087 T02280183 =
2018-06-20 17:51 METAR KJFK 202151Z 16012KT 10SM FEW045 SCT095 SCT120 BKN230 24/19 A2980 RMK AO2
                 SLP090 T02390189 =
2018-06-20 16:51 METAR KJFK 202051Z 17011KT 10SM FEW045 SCT110 BKN250 24/19 A2981 RMK AO2 SLP095
                 T02440194 58015 =
2018-06-20 15:51 METAR KJFK 201951Z 18008KT 10SM FEW045 FEW060 SCT110 SCT130 BKN250 24/17 A2983
                 RMK AO2 SLP102 T02440167 =
2018-06-20 14:51 METAR KJFK 201851Z 16006KT 10SM FEW040 FEW060 SCT110 BKN250 24/15 A2985 RMK AO2
                 SLP106 T02440150 =
2018-06-20 13:51 METAR KJFK 201751Z 19006KT 10SM SCT039 BKN120 BKN220 25/14 A2986 RMK AO2 SLP110
                 T02500144 10250 20211 58014 =
2018-06-20 12:51 METAR KJFK 201651Z 15007KT 10SM SCT043 BKN130 BKN220 23/15 A2988 RMK AO2 SLP117
                 T02330150 =

Support USWX by starting your Amazon purchase here.